sensor_id;sensor_type;location;lat;lon;timestamp;temperature;humidity
4487;DHT22;2256;48.740;9.106;2023-04-24T00:02:05;10.20;99.90
4487;DHT22;2256;48.740;9.106;2023-04-24T00:04:38;10.30;99.90
4487;DHT22;2256;48.740;9.106;2023-04-24T00:07:06;10.40;99.90
4487;DHT22;2256;48.740;9.106;2023-04-24T00:09:33;10.40;99.90
4487;DHT22;2256;48.740;9.106;2023-04-24T00:11:59;10.30;99.90
4487;DHT22;2256;48.740;9.106;2023-04-24T00:14:28;10.40;99.90
4487;DHT22;2256;48.740;9.106;2023-04-24T00:16:54;10.40;99.90
4487;DHT22;2256;48.740;9.106;2023-04-24T00:19:21;10.40;99.90
4487;DHT22;2256;48.740;9.106;2023-04-24T00:21:49;10.40;99.90
4487;DHT22;2256;48.740;9.106;2023-04-24T00:24:16;10.50;99.90
4487;DHT22;2256;48.740;9.106;2023-04-24T00:26:43;10.60;99.90
4487;DHT22;2256;48.740;9.106;2023-04-24T00:29:10;10.50;99.90
4487;DHT22;2256;48.740;9.106;2023-04-24T00:31:37;10.50;99.90
4487;DHT22;2256;48.740;9.106;2023-04-24T00:34:04;10.50;99.90
4487;DHT22;2256;48.740;9.106;2023-04-24T00:36:31;10.50;99.90
4487;DHT22;2256;48.740;9.106;2023-04-24T00:39:00;10.50;99.90
4487;DHT22;2256;48.740;9.106;2023-04-24T00:41:26;10.40;99.90
4487;DHT22;2256;48.740;9.106;2023-04-24T00:43:53;10.50;99.90
4487;DHT22;2256;48.740;9.106;2023-04-24T00:46:21;10.50;99.90
4487;DHT22;2256;48.740;9.106;2023-04-24T00:48:48;10.50;99.90
4487;DHT22;2256;48.740;9.106;2023-04-24T00:51:14;10.60;99.90
4487;DHT22;2256;48.740;9.106;2023-04-24T00:53:41;10.60;99.90
4487;DHT22;2256;48.740;9.106;2023-04-24T00:56:15;10.60;99.90
4487;DHT22;2256;48.740;9.106;2023-04-24T00:58:42;10.70;99.90
4487;DHT22;2256;48.740;9.106;2023-04-24T01:01:09;10.70;99.90
4487;DHT22;2256;48.740;9.106;2023-04-24T01:03:37;10.70;99.90
4487;DHT22;2256;48.740;9.106;2023-04-24T01:06:05;10.60;99.90
4487;DHT22;2256;48.740;9.106;2023-04-24T01:08:33;10.50;99.90
4487;DHT22;2256;48.740;9.106;2023-04-24T01:11:03;10.70;99.90
4487;DHT22;2256;48.740;9.106;2023-04-24T01:13:33;10.60;99.90
4487;DHT22;2256;48.740;9.106;2023-04-24T01:16:00;10.70;99.90
4487;DHT22;2256;48.740;9.106;2023-04-24T01:18:27;10.70;99.90
4487;DHT22;2256;48.740;9.106;2023-04-24T01:20:57;10.70;99.90
4487;DHT22;2256;48.740;9.106;2023-04-24T01:23:26;10.70;99.90
4487;DHT22;2256;48.740;9.106;2023-04-24T01:25:53;10.80;99.90
4487;DHT22;2256;48.740;9.106;2023-04-24T01:28:21;10.70;99.90
4487;DHT22;2256;48.740;9.106;2023-04-24T01:30:48;10.70;99.90
4487;DHT22;2256;48.740;9.106;2023-04-24T01:33:15;10.70;99.90
4487;DHT22;2256;48.740;9.106;2023-04-24T01:35:42;10.50;99.90
4487;DHT22;2256;48.740;9.106;2023-04-24T01:38:09;10.50;99.90
4487;DHT22;2256;48.740;9.106;2023-04-24T01:40:37;10.50;99.90
4487;DHT22;2256;48.740;9.106;2023-04-24T01:43:04;10.50;99.90
4487;DHT22;2256;48.740;9.106;2023-04-24T01:45:31;10.40;99.90
4487;DHT22;2256;48.740;9.106;2023-04-24T01:48:00;10.50;99.90
4487;DHT22;2256;48.740;9.106;2023-04-24T01:50:27;10.40;99.90
4487;DHT22;2256;48.740;9.106;2023-04-24T01:52:54;10.50;99.90
4487;DHT22;2256;48.740;9.106;2023-04-24T01:55:20;10.40;99.90
4487;DHT22;2256;48.740;9.106;2023-04-24T01:57:49;10.40;99.90
4487;DHT22;2256;48.740;9.106;2023-04-24T02:00:16;10.40;99.90
4487;DHT22;2256;48.740;9.106;2023-04-24T02:02:43;10.30;99.90
4487;DHT22;2256;48.740;9.106;2023-04-24T02:05:10;10.30;99.90
4487;DHT22;2256;48.740;9.106;2023-04-24T02:07:37;10.30;99.90
4487;DHT22;2256;48.740;9.106;2023-04-24T02:10:06;10.30;99.90
4487;DHT22;2256;48.740;9.106;2023-04-24T02:12:33;10.20;99.90
4487;DHT22;2256;48.740;9.106;2023-04-24T02:15:01;10.40;99.90
4487;DHT22;2256;48.740;9.106;2023-04-24T02:17:28;10.30;99.90
4487;DHT22;2256;48.740;9.106;2023-04-24T02:19:56;10.30;99.90
4487;DHT22;2256;48.740;9.106;2023-04-24T02:22:22;10.30;99.90
4487;DHT22;2256;48.740;9.106;2023-04-24T02:24:49;10.30;99.90
4487;DHT22;2256;48.740;9.106;2023-04-24T02:27:16;10.20;99.90
4487;DHT22;2256;48.740;9.106;2023-04-24T02:29:43;10.20;99.90
4487;DHT22;2256;48.740;9.106;2023-04-24T02:32:11;10.20;99.90
4487;DHT22;2256;48.740;9.106;2023-04-24T02:34:40;10.20;99.90
4487;DHT22;2256;48.740;9.106;2023-04-24T02:37:07;10.20;99.90
4487;DHT22;2256;48.740;9.106;2023-04-24T02:39:34;10.20;99.90
4487;DHT22;2256;48.740;9.106;2023-04-24T02:42:01;10.20;99.90
4487;DHT22;2256;48.740;9.106;2023-04-24T02:44:28;10.30;99.90
4487;DHT22;2256;48.740;9.106;2023-04-24T02:46:56;10.30;99.90
4487;DHT22;2256;48.740;9.106;2023-04-24T02:49:25;10.30;99.90
4487;DHT22;2256;48.740;9.106;2023-04-24T02:51:52;10.40;99.90
4487;DHT22;2256;48.740;9.106;2023-04-24T02:54:19;10.40;99.90
4487;DHT22;2256;48.740;9.106;2023-04-24T02:56:46;10.30;99.90
4487;DHT22;2256;48.740;9.106;2023-04-24T02:59:12;10.20;99.90
4487;DHT22;2256;48.740;9.106;2023-04-24T03:01:39;10.20;99.90
4487;DHT22;2256;48.740;9.106;2023-04-24T03:04:06;10.30;99.90
4487;DHT22;2256;48.740;9.106;2023-04-24T03:06:34;10.30;99.90
4487;DHT22;2256;48.740;9.106;2023-04-24T03:09:01;10.30;99.90
4487;DHT22;2256;48.740;9.106;2023-04-24T03:11:28;10.10;99.90
4487;DHT22;2256;48.740;9.106;2023-04-24T03:13:55;10.10;99.90
4487;DHT22;2256;48.740;9.106;2023-04-24T03:16:22;10.10;99.90
4487;DHT22;2256;48.740;9.106;2023-04-24T03:18:49;10.00;99.90
4487;DHT22;2256;48.740;9.106;2023-04-24T03:21:17;10.00;99.90
4487;DHT22;2256;48.740;9.106;2023-04-24T03:23:45;9.90;99.90
4487;DHT22;2256;48.740;9.106;2023-04-24T03:26:12;9.90;99.90
4487;DHT22;2256;48.740;9.106;2023-04-24T03:28:38;9.80;99.90
4487;DHT22;2256;48.740;9.106;2023-04-24T03:31:06;9.70;99.90
4487;DHT22;2256;48.740;9.106;2023-04-24T03:33:33;9.60;99.90
4487;DHT22;2256;48.740;9.106;2023-04-24T03:36:00;9.60;99.90
4487;DHT22;2256;48.740;9.106;2023-04-24T03:38:27;9.60;99.90
4487;DHT22;2256;48.740;9.106;2023-04-24T03:40:55;9.70;99.90
4487;DHT22;2256;48.740;9.106;2023-04-24T03:43:22;9.60;99.90
4487;DHT22;2256;48.740;9.106;2023-04-24T03:45:49;9.60;99.90
4487;DHT22;2256;48.740;9.106;2023-04-24T03:48:17;9.70;99.90
4487;DHT22;2256;48.740;9.106;2023-04-24T03:50:44;9.60;99.90
4487;DHT22;2256;48.740;9.106;2023-04-24T03:53:11;9.60;99.90
4487;DHT22;2256;48.740;9.106;2023-04-24T03:55:37;9.50;99.90
4487;DHT22;2256;48.740;9.106;2023-04-24T03:58:06;9.50;99.90
4487;DHT22;2256;48.740;9.106;2023-04-24T04:00:32;9.50;99.90
4487;DHT22;2256;48.740;9.106;2023-04-24T04:03:00;9.50;99.90
4487;DHT22;2256;48.740;9.106;2023-04-24T04:05:26;9.50;99.90
4487;DHT22;2256;48.740;9.106;2023-04-24T04:07:53;9.40;99.90
4487;DHT22;2256;48.740;9.106;2023-04-24T04:10:20;9.40;99.90
4487;DHT22;2256;48.740;9.106;2023-04-24T04:12:47;9.40;99.90
4487;DHT22;2256;48.740;9.106;2023-04-24T04:15:15;9.40;99.90
4487;DHT22;2256;48.740;9.106;2023-04-24T04:17:42;9.50;99.90
4487;DHT22;2256;48.740;9.106;2023-04-24T04:20:09;9.50;99.90
4487;DHT22;2256;48.740;9.106;2023-04-24T04:22:37;9.60;99.90
4487;DHT22;2256;48.740;9.106;2023-04-24T04:25:04;9.70;99.90
4487;DHT22;2256;48.740;9.106;2023-04-24T04:27:33;9.70;99.90
4487;DHT22;2256;48.740;9.106;2023-04-24T04:30:00;9.90;99.90
4487;DHT22;2256;48.740;9.106;2023-04-24T04:32:31;9.70;99.90
4487;DHT22;2256;48.740;9.106;2023-04-24T04:34:58;9.60;99.90
4487;DHT22;2256;48.740;9.106;2023-04-24T04:37:28;9.50;99.90
4487;DHT22;2256;48.740;9.106;2023-04-24T04:39:55;9.40;99.90
4487;DHT22;2256;48.740;9.106;2023-04-24T04:42:23;9.30;99.90
4487;DHT22;2256;48.740;9.106;2023-04-24T04:44:50;9.20;99.90
4487;DHT22;2256;48.740;9.106;2023-04-24T04:47:17;9.10;99.90
4487;DHT22;2256;48.740;9.106;2023-04-24T04:49:45;9.00;99.90
4487;DHT22;2256;48.740;9.106;2023-04-24T04:52:12;9.00;99.90
4487;DHT22;2256;48.740;9.106;2023-04-24T04:54:38;9.00;99.90
4487;DHT22;2256;48.740;9.106;2023-04-24T04:57:05;8.90;99.90
4487;DHT22;2256;48.740;9.106;2023-04-24T04:59:32;8.90;99.90
4487;DHT22;2256;48.740;9.106;2023-04-24T05:01:59;8.80;99.90
4487;DHT22;2256;48.740;9.106;2023-04-24T05:04:26;8.80;99.90
4487;DHT22;2256;48.740;9.106;2023-04-24T05:06:54;8.80;99.90
4487;DHT22;2256;48.740;9.106;2023-04-24T05:09:21;8.80;99.90
4487;DHT22;2256;48.740;9.106;2023-04-24T05:11:47;8.90;99.90
4487;DHT22;2256;48.740;9.106;2023-04-24T05:14:14;8.90;99.90
4487;DHT22;2256;48.740;9.106;2023-04-24T05:16:43;8.90;99.90
4487;DHT22;2256;48.740;9.106;2023-04-24T05:19:10;8.90;99.90
4487;DHT22;2256;48.740;9.106;2023-04-24T05:21:37;9.00;99.90
4487;DHT22;2256;48.740;9.106;2023-04-24T05:24:06;9.00;99.90
4487;DHT22;2256;48.740;9.106;2023-04-24T05:26:33;9.00;99.90
4487;DHT22;2256;48.740;9.106;2023-04-24T05:29:01;9.00;99.90
4487;DHT22;2256;48.740;9.106;2023-04-24T05:31:27;9.00;99.90
4487;DHT22;2256;48.740;9.106;2023-04-24T05:33:54;9.00;99.90
4487;DHT22;2256;48.740;9.106;2023-04-24T05:36:21;9.10;99.90
4487;DHT22;2256;48.740;9.106;2023-04-24T05:38:48;9.20;99.90
4487;DHT22;2256;48.740;9.106;2023-04-24T05:41:16;9.20;99.90
4487;DHT22;2256;48.740;9.106;2023-04-24T05:43:43;9.20;99.90
4487;DHT22;2256;48.740;9.106;2023-04-24T05:46:11;9.20;99.90
4487;DHT22;2256;48.740;9.106;2023-04-24T05:48:38;9.30;99.90
4487;DHT22;2256;48.740;9.106;2023-04-24T05:51:07;9.40;99.90
4487;DHT22;2256;48.740;9.106;2023-04-24T05:53:34;9.40;99.90
4487;DHT22;2256;48.740;9.106;2023-04-24T05:56:00;9.50;99.90
4487;DHT22;2256;48.740;9.106;2023-04-24T05:58:29;9.50;99.90
4487;DHT22;2256;48.740;9.106;2023-04-24T06:00:55;9.50;99.90
4487;DHT22;2256;48.740;9.106;2023-04-24T06:03:24;9.50;99.90
4487;DHT22;2256;48.740;9.106;2023-04-24T06:05:50;9.50;99.90
4487;DHT22;2256;48.740;9.106;2023-04-24T06:08:17;9.50;99.90
4487;DHT22;2256;48.740;9.106;2023-04-24T06:10:45;9.50;99.90
4487;DHT22;2256;48.740;9.106;2023-04-24T06:13:16;9.50;99.90
4487;DHT22;2256;48.740;9.106;2023-04-24T06:15:45;9.50;99.90
4487;DHT22;2256;48.740;9.106;2023-04-24T06:18:12;9.80;99.90
4487;DHT22;2256;48.740;9.106;2023-04-24T06:20:38;10.10;99.90
4487;DHT22;2256;48.740;9.106;2023-04-24T06:23:05;10.90;99.90
4487;DHT22;2256;48.740;9.106;2023-04-24T06:25:32;11.70;99.90
4487;DHT22;2256;48.740;9.106;2023-04-24T06:28:00;12.30;99.90
4487;DHT22;2256;48.740;9.106;2023-04-24T06:30:27;13.10;99.90
4487;DHT22;2256;48.740;9.106;2023-04-24T06:32:56;14.50;99.90
4487;DHT22;2256;48.740;9.106;2023-04-24T06:35:24;16.10;99.90
4487;DHT22;2256;48.740;9.106;2023-04-24T06:37:51;17.00;99.90
4487;DHT22;2256;48.740;9.106;2023-04-24T06:40:18;16.70;99.90
4487;DHT22;2256;48.740;9.106;2023-04-24T06:42:45;15.90;99.90
4487;DHT22;2256;48.740;9.106;2023-04-24T06:45:13;15.30;99.90
4487;DHT22;2256;48.740;9.106;2023-04-24T06:47:40;14.80;99.90
4487;DHT22;2256;48.740;9.106;2023-04-24T06:50:09;14.30;99.90
4487;DHT22;2256;48.740;9.106;2023-04-24T06:52:36;14.50;99.90
4487;DHT22;2256;48.740;9.106;2023-04-24T06:55:04;14.50;99.90
4487;DHT22;2256;48.740;9.106;2023-04-24T06:57:31;14.30;99.90
4487;DHT22;2256;48.740;9.106;2023-04-24T06:59:58;14.30;99.90
4487;DHT22;2256;48.740;9.106;2023-04-24T07:02:25;14.40;99.90
4487;DHT22;2256;48.740;9.106;2023-04-24T07:04:52;14.40;99.90
4487;DHT22;2256;48.740;9.106;2023-04-24T07:07:20;15.00;99.90
4487;DHT22;2256;48.740;9.106;2023-04-24T07:09:49;15.00;99.90
4487;DHT22;2256;48.740;9.106;2023-04-24T07:12:16;14.90;99.90
4487;DHT22;2256;48.740;9.106;2023-04-24T07:14:46;14.60;99.90
4487;DHT22;2256;48.740;9.106;2023-04-24T07:17:14;14.20;99.90
4487;DHT22;2256;48.740;9.106;2023-04-24T07:19:42;13.40;99.90
4487;DHT22;2256;48.740;9.106;2023-04-24T07:22:09;12.50;99.90
4487;DHT22;2256;48.740;9.106;2023-04-24T07:24:43;12.10;99.90
4487;DHT22;2256;48.740;9.106;2023-04-24T07:27:10;12.10;99.90
4487;DHT22;2256;48.740;9.106;2023-04-24T07:29:37;11.80;99.90
4487;DHT22;2256;48.740;9.106;2023-04-24T07:32:03;12.00;99.90
4487;DHT22;2256;48.740;9.106;2023-04-24T07:34:32;12.90;99.90
4487;DHT22;2256;48.740;9.106;2023-04-24T07:36:59;14.30;99.90
4487;DHT22;2256;48.740;9.106;2023-04-24T07:39:26;15.80;99.90
4487;DHT22;2256;48.740;9.106;2023-04-24T07:41:56;16.50;99.20
4487;DHT22;2256;48.740;9.106;2023-04-24T07:44:26;16.30;98.20
4487;DHT22;2256;48.740;9.106;2023-04-24T07:46:53;15.70;98.50
4487;DHT22;2256;48.740;9.106;2023-04-24T07:49:20;15.00;98.70
4487;DHT22;2256;48.740;9.106;2023-04-24T07:51:49;14.20;98.50
4487;DHT22;2256;48.740;9.106;2023-04-24T07:54:16;14.00;99.70
4487;DHT22;2256;48.740;9.106;2023-04-24T07:56:43;14.70;99.40
4487;DHT22;2256;48.740;9.106;2023-04-24T07:59:12;15.20;97.70
4487;DHT22;2256;48.740;9.106;2023-04-24T08:01:38;15.20;98.00
4487;DHT22;2256;48.740;9.106;2023-04-24T08:04:05;14.80;97.60
4487;DHT22;2256;48.740;9.106;2023-04-24T08:06:32;14.20;97.80
4487;DHT22;2256;48.740;9.106;2023-04-24T08:09:00;14.00;98.30
4487;DHT22;2256;48.740;9.106;2023-04-24T08:11:27;13.60;98.50
4487;DHT22;2256;48.740;9.106;2023-04-24T08:13:54;13.30;98.70
4487;DHT22;2256;48.740;9.106;2023-04-24T08:16:24;13.00;98.50
4487;DHT22;2256;48.740;9.106;2023-04-24T08:18:52;13.00;98.70
4487;DHT22;2256;48.740;9.106;2023-04-24T08:21:19;13.30;98.50
4487;DHT22;2256;48.740;9.106;2023-04-24T08:23:46;13.50;98.10
4487;DHT22;2256;48.740;9.106;2023-04-24T08:26:13;14.20;98.40
4487;DHT22;2256;48.740;9.106;2023-04-24T08:28:42;15.30;97.20
4487;DHT22;2256;48.740;9.106;2023-04-24T08:31:10;16.00;96.50
4487;DHT22;2256;48.740;9.106;2023-04-24T08:33:40;16.40;95.10
4487;DHT22;2256;48.740;9.106;2023-04-24T08:36:07;16.60;94.60
4487;DHT22;2256;48.740;9.106;2023-04-24T08:38:34;16.90;94.30
4487;DHT22;2256;48.740;9.106;2023-04-24T08:41:01;16.70;93.70
4487;DHT22;2256;48.740;9.106;2023-04-24T08:43:33;16.90;93.80
4487;DHT22;2256;48.740;9.106;2023-04-24T08:46:03;16.80;94.10
4487;DHT22;2256;48.740;9.106;2023-04-24T08:48:30;16.30;93.70
4487;DHT22;2256;48.740;9.106;2023-04-24T08:50:59;16.40;94.30
4487;DHT22;2256;48.740;9.106;2023-04-24T08:53:27;17.40;94.30
4487;DHT22;2256;48.740;9.106;2023-04-24T08:55:55;18.10;93.20
4487;DHT22;2256;48.740;9.106;2023-04-24T08:58:24;18.00;92.80
4487;DHT22;2256;48.740;9.106;2023-04-24T09:00:51;18.20;93.10
4487;DHT22;2256;48.740;9.106;2023-04-24T09:03:19;18.60;93.10
4487;DHT22;2256;48.740;9.106;2023-04-24T09:05:48;18.10;92.90
4487;DHT22;2256;48.740;9.106;2023-04-24T09:08:18;16.90;93.60
4487;DHT22;2256;48.740;9.106;2023-04-24T09:10:45;15.70;94.10
4487;DHT22;2256;48.740;9.106;2023-04-24T09:13:13;14.90;95.10
4487;DHT22;2256;48.740;9.106;2023-04-24T09:15:42;14.30;95.70
4487;DHT22;2256;48.740;9.106;2023-04-24T09:18:09;13.50;95.60
4487;DHT22;2256;48.740;9.106;2023-04-24T09:20:56;13.10;96.00
4487;DHT22;2256;48.740;9.106;2023-04-24T09:23:27;13.10;96.30
4487;DHT22;2256;48.740;9.106;2023-04-24T09:25:55;12.70;96.50
4487;DHT22;2256;48.740;9.106;2023-04-24T09:28:25;12.60;96.90
4487;DHT22;2256;48.740;9.106;2023-04-24T09:31:03;13.40;98.70
4487;DHT22;2256;48.740;9.106;2023-04-24T09:33:29;14.10;97.50
4487;DHT22;2256;48.740;9.106;2023-04-24T09:35:56;14.00;97.70
4487;DHT22;2256;48.740;9.106;2023-04-24T09:38:33;14.20;97.60
4487;DHT22;2256;48.740;9.106;2023-04-24T09:41:03;14.40;96.90
4487;DHT22;2256;48.740;9.106;2023-04-24T09:43:31;14.80;97.00
4487;DHT22;2256;48.740;9.106;2023-04-24T09:46:03;15.60;95.90
4487;DHT22;2256;48.740;9.106;2023-04-24T09:48:31;15.70;95.50
4487;DHT22;2256;48.740;9.106;2023-04-24T09:50:58;15.20;92.50
4487;DHT22;2256;48.740;9.106;2023-04-24T09:53:26;14.30;94.00
4487;DHT22;2256;48.740;9.106;2023-04-24T09:55:55;13.40;93.10
4487;DHT22;2256;48.740;9.106;2023-04-24T09:58:25;12.90;93.50
4487;DHT22;2256;48.740;9.106;2023-04-24T10:00:55;12.50;94.40
4487;DHT22;2256;48.740;9.106;2023-04-24T10:03:24;12.50;94.50
4487;DHT22;2256;48.740;9.106;2023-04-24T10:05:52;12.30;94.80
4487;DHT22;2256;48.740;9.106;2023-04-24T10:08:21;12.80;94.90
4487;DHT22;2256;48.740;9.106;2023-04-24T10:10:48;13.80;94.70
4487;DHT22;2256;48.740;9.106;2023-04-24T10:13:17;14.30;94.00
4487;DHT22;2256;48.740;9.106;2023-04-24T10:15:44;14.40;93.40
4487;DHT22;2256;48.740;9.106;2023-04-24T10:18:12;14.40;93.90
4487;DHT22;2256;48.740;9.106;2023-04-24T10:20:40;14.40;93.20
4487;DHT22;2256;48.740;9.106;2023-04-24T10:23:06;14.50;93.40
4487;DHT22;2256;48.740;9.106;2023-04-24T10:25:35;14.70;93.50
4487;DHT22;2256;48.740;9.106;2023-04-24T10:28:05;15.00;93.50
4487;DHT22;2256;48.740;9.106;2023-04-24T10:30:34;15.40;92.70
4487;DHT22;2256;48.740;9.106;2023-04-24T10:33:02;15.80;93.00
4487;DHT22;2256;48.740;9.106;2023-04-24T10:35:31;16.00;91.80
4487;DHT22;2256;48.740;9.106;2023-04-24T10:38:02;16.10;91.20
4487;DHT22;2256;48.740;9.106;2023-04-24T10:40:31;16.10;92.40
4487;DHT22;2256;48.740;9.106;2023-04-24T10:42:58;15.80;91.10
4487;DHT22;2256;48.740;9.106;2023-04-24T10:45:26;15.20;91.50
4487;DHT22;2256;48.740;9.106;2023-04-24T10:48:05;14.60;92.40
4487;DHT22;2256;48.740;9.106;2023-04-24T10:50:44;14.00;92.50
4487;DHT22;2256;48.740;9.106;2023-04-24T10:53:16;13.40;93.70
4487;DHT22;2256;48.740;9.106;2023-04-24T10:55:45;13.00;94.00
4487;DHT22;2256;48.740;9.106;2023-04-24T10:58:12;12.90;94.30
4487;DHT22;2256;48.740;9.106;2023-04-24T11:00:41;12.90;94.70
4487;DHT22;2256;48.740;9.106;2023-04-24T11:03:25;12.90;94.90
4487;DHT22;2256;48.740;9.106;2023-04-24T11:05:56;12.60;94.50
4487;DHT22;2256;48.740;9.106;2023-04-24T11:08:28;12.40;94.80
4487;DHT22;2256;48.740;9.106;2023-04-24T11:11:09;12.00;95.10
4487;DHT22;2256;48.740;9.106;2023-04-24T11:14:02;12.00;95.60
4487;DHT22;2256;48.740;9.106;2023-04-24T11:16:31;11.80;96.00
4487;DHT22;2256;48.740;9.106;2023-04-24T11:19:06;11.80;96.30
4487;DHT22;2256;48.740;9.106;2023-04-24T11:21:41;11.80;95.90
4487;DHT22;2256;48.740;9.106;2023-04-24T11:24:24;11.90;96.00
4487;DHT22;2256;48.740;9.106;2023-04-24T11:26:52;12.30;96.20
4487;DHT22;2256;48.740;9.106;2023-04-24T11:29:20;12.70;96.10
4487;DHT22;2256;48.740;9.106;2023-04-24T11:31:47;13.40;96.20
4487;DHT22;2256;48.740;9.106;2023-04-24T11:34:18;13.90;94.90
4487;DHT22;2256;48.740;9.106;2023-04-24T11:36:49;13.80;94.10
4487;DHT22;2256;48.740;9.106;2023-04-24T11:39:16;13.70;94.50
4487;DHT22;2256;48.740;9.106;2023-04-24T11:41:42;13.50;94.90
4487;DHT22;2256;48.740;9.106;2023-04-24T11:44:09;13.00;94.60
4487;DHT22;2256;48.740;9.106;2023-04-24T11:46:37;12.70;95.50
4487;DHT22;2256;48.740;9.106;2023-04-24T11:49:05;12.50;95.90
4487;DHT22;2256;48.740;9.106;2023-04-24T11:51:34;12.40;95.80
4487;DHT22;2256;48.740;9.106;2023-04-24T11:54:01;12.30;96.10
4487;DHT22;2256;48.740;9.106;2023-04-24T11:56:29;12.60;96.70
4487;DHT22;2256;48.740;9.106;2023-04-24T11:58:56;12.90;95.90
4487;DHT22;2256;48.740;9.106;2023-04-24T12:01:23;13.30;95.60
4487;DHT22;2256;48.740;9.106;2023-04-24T12:03:50;13.40;94.80
4487;DHT22;2256;48.740;9.106;2023-04-24T12:06:17;13.40;94.80
4487;DHT22;2256;48.740;9.106;2023-04-24T12:08:47;13.40;94.60
4487;DHT22;2256;48.740;9.106;2023-04-24T12:11:16;13.10;95.00
4487;DHT22;2256;48.740;9.106;2023-04-24T12:13:44;12.90;95.10
4487;DHT22;2256;48.740;9.106;2023-04-24T12:16:11;12.60;95.40
4487;DHT22;2256;48.740;9.106;2023-04-24T12:18:43;12.30;95.60
4487;DHT22;2256;48.740;9.106;2023-04-24T12:21:18;11.90;96.00
4487;DHT22;2256;48.740;9.106;2023-04-24T12:23:46;11.80;95.90
4487;DHT22;2256;48.740;9.106;2023-04-24T12:26:16;11.80;95.70
4487;DHT22;2256;48.740;9.106;2023-04-24T12:28:46;11.90;95.80
4487;DHT22;2256;48.740;9.106;2023-04-24T12:31:13;12.20;95.80
4487;DHT22;2256;48.740;9.106;2023-04-24T12:33:40;12.60;95.20
4487;DHT22;2256;48.740;9.106;2023-04-24T12:36:10;12.70;94.70
4487;DHT22;2256;48.740;9.106;2023-04-24T12:38:38;12.80;95.10
4487;DHT22;2256;48.740;9.106;2023-04-24T12:41:10;13.00;94.70
4487;DHT22;2256;48.740;9.106;2023-04-24T12:43:38;13.10;94.90
4487;DHT22;2256;48.740;9.106;2023-04-24T12:46:05;13.20;94.80
4487;DHT22;2256;48.740;9.106;2023-04-24T12:48:32;13.30;94.90
4487;DHT22;2256;48.740;9.106;2023-04-24T12:50:59;13.10;95.10
4487;DHT22;2256;48.740;9.106;2023-04-24T12:53:27;12.70;95.50
4487;DHT22;2256;48.740;9.106;2023-04-24T12:55:56;12.20;96.00
4487;DHT22;2256;48.740;9.106;2023-04-24T12:58:25;12.00;96.60
4487;DHT22;2256;48.740;9.106;2023-04-24T13:00:51;11.90;96.90
4487;DHT22;2256;48.740;9.106;2023-04-24T13:03:18;11.60;97.10
4487;DHT22;2256;48.740;9.106;2023-04-24T13:05:46;11.50;97.60
4487;DHT22;2256;48.740;9.106;2023-04-24T13:08:13;11.30;98.50
4487;DHT22;2256;48.740;9.106;2023-04-24T13:10:39;11.30;99.90
4487;DHT22;2256;48.740;9.106;2023-04-24T13:13:07;11.30;99.90
4487;DHT22;2256;48.740;9.106;2023-04-24T13:15:35;11.30;99.90
4487;DHT22;2256;48.740;9.106;2023-04-24T13:18:02;11.50;99.90
4487;DHT22;2256;48.740;9.106;2023-04-24T13:20:29;11.80;99.90
4487;DHT22;2256;48.740;9.106;2023-04-24T13:22:57;12.10;99.90
4487;DHT22;2256;48.740;9.106;2023-04-24T13:25:24;12.60;99.90
4487;DHT22;2256;48.740;9.106;2023-04-24T13:27:51;13.00;99.90
4487;DHT22;2256;48.740;9.106;2023-04-24T13:30:18;13.10;99.90
4487;DHT22;2256;48.740;9.106;2023-04-24T13:32:47;13.30;99.90
4487;DHT22;2256;48.740;9.106;2023-04-24T13:35:14;13.00;98.60
4487;DHT22;2256;48.740;9.106;2023-04-24T13:37:41;12.70;98.70
4487;DHT22;2256;48.740;9.106;2023-04-24T13:40:09;12.40;98.60
4487;DHT22;2256;48.740;9.106;2023-04-24T13:42:36;12.00;98.40
4487;DHT22;2256;48.740;9.106;2023-04-24T13:45:03;11.80;99.30
4487;DHT22;2256;48.740;9.106;2023-04-24T13:47:32;11.40;99.90
4487;DHT22;2256;48.740;9.106;2023-04-24T13:50:01;11.00;99.90
4487;DHT22;2256;48.740;9.106;2023-04-24T13:52:28;10.70;99.90
4487;DHT22;2256;48.740;9.106;2023-04-24T13:54:55;10.60;99.90
4487;DHT22;2256;48.740;9.106;2023-04-24T13:57:22;10.60;99.90
4487;DHT22;2256;48.740;9.106;2023-04-24T13:59:48;10.60;99.90
4487;DHT22;2256;48.740;9.106;2023-04-24T14:02:15;10.90;99.90
4487;DHT22;2256;48.740;9.106;2023-04-24T14:04:42;11.30;99.90
4487;DHT22;2256;48.740;9.106;2023-04-24T14:07:11;11.60;99.90
4487;DHT22;2256;48.740;9.106;2023-04-24T14:09:38;11.70;99.90
4487;DHT22;2256;48.740;9.106;2023-04-24T14:12:05;11.60;99.90
4487;DHT22;2256;48.740;9.106;2023-04-24T14:14:34;11.60;99.90
4487;DHT22;2256;48.740;9.106;2023-04-24T14:17:01;11.40;99.90
4487;DHT22;2256;48.740;9.106;2023-04-24T14:19:28;11.20;99.90
4487;DHT22;2256;48.740;9.106;2023-04-24T14:21:54;10.70;99.90
4487;DHT22;2256;48.740;9.106;2023-04-24T14:24:26;10.30;99.90
4487;DHT22;2256;48.740;9.106;2023-04-24T14:26:52;10.20;99.90
4487;DHT22;2256;48.740;9.106;2023-04-24T14:29:19;10.10;99.90
4487;DHT22;2256;48.740;9.106;2023-04-24T14:31:46;10.20;99.90
4487;DHT22;2256;48.740;9.106;2023-04-24T14:34:13;10.40;99.90
4487;DHT22;2256;48.740;9.106;2023-04-24T14:36:40;10.60;99.90
4487;DHT22;2256;48.740;9.106;2023-04-24T14:39:08;10.90;99.90
4487;DHT22;2256;48.740;9.106;2023-04-24T14:41:37;11.00;99.90
4487;DHT22;2256;48.740;9.106;2023-04-24T14:44:05;11.00;99.90
4487;DHT22;2256;48.740;9.106;2023-04-24T14:46:32;10.90;99.90
4487;DHT22;2256;48.740;9.106;2023-04-24T14:48:58;10.80;99.90
4487;DHT22;2256;48.740;9.106;2023-04-24T14:51:25;11.10;99.90
4487;DHT22;2256;48.740;9.106;2023-04-24T14:53:52;11.30;99.90
4487;DHT22;2256;48.740;9.106;2023-04-24T14:56:19;11.60;99.90
4487;DHT22;2256;48.740;9.106;2023-04-24T14:58:48;12.10;99.90
4487;DHT22;2256;48.740;9.106;2023-04-24T15:01:15;12.30;99.90
4487;DHT22;2256;48.740;9.106;2023-04-24T15:03:43;12.30;99.90
4487;DHT22;2256;48.740;9.106;2023-04-24T15:06:10;12.10;99.90
4487;DHT22;2256;48.740;9.106;2023-04-24T15:08:36;11.80;99.90
4487;DHT22;2256;48.740;9.106;2023-04-24T15:11:03;11.70;99.90
4487;DHT22;2256;48.740;9.106;2023-04-24T15:13:31;11.50;99.90
4487;DHT22;2256;48.740;9.106;2023-04-24T15:15:59;11.50;99.90
4487;DHT22;2256;48.740;9.106;2023-04-24T15:18:26;11.40;99.90
4487;DHT22;2256;48.740;9.106;2023-04-24T15:20:54;11.50;99.90
4487;DHT22;2256;48.740;9.106;2023-04-24T15:23:21;11.30;99.90
4487;DHT22;2256;48.740;9.106;2023-04-24T15:25:48;11.20;99.90
4487;DHT22;2256;48.740;9.106;2023-04-24T15:28:14;11.30;99.90
4487;DHT22;2256;48.740;9.106;2023-04-24T15:30:43;11.10;99.90
4487;DHT22;2256;48.740;9.106;2023-04-24T15:33:11;11.20;99.90
4487;DHT22;2256;48.740;9.106;2023-04-24T15:35:38;11.20;99.90
4487;DHT22;2256;48.740;9.106;2023-04-24T15:38:05;11.20;99.90
4487;DHT22;2256;48.740;9.106;2023-04-24T15:40:32;11.10;99.90
4487;DHT22;2256;48.740;9.106;2023-04-24T15:42:59;10.90;99.90
4487;DHT22;2256;48.740;9.106;2023-04-24T15:45:26;10.80;99.90
4487;DHT22;2256;48.740;9.106;2023-04-24T15:47:53;10.80;99.90
4487;DHT22;2256;48.740;9.106;2023-04-24T15:50:21;10.90;99.90
4487;DHT22;2256;48.740;9.106;2023-04-24T15:52:48;10.90;99.90
4487;DHT22;2256;48.740;9.106;2023-04-24T15:55:15;10.90;99.90
4487;DHT22;2256;48.740;9.106;2023-04-24T15:57:42;10.90;99.90
4487;DHT22;2256;48.740;9.106;2023-04-24T16:00:10;10.80;99.90
4487;DHT22;2256;48.740;9.106;2023-04-24T16:02:37;10.90;99.90
4487;DHT22;2256;48.740;9.106;2023-04-24T16:05:04;11.00;99.90
4487;DHT22;2256;48.740;9.106;2023-04-24T16:07:34;11.00;99.90
4487;DHT22;2256;48.740;9.106;2023-04-24T16:10:00;11.10;99.90